Nyk Orpheus — 7JDN — position and weather

sailwx.info

Track history (hours):
 
Tides and Currents Weather Stations Pressure Air Temp Water Temp Dewpoint Dewpoint Depression Visibility Wind Speed Wind Dir Waves Ship Positions

Nyk Orpheus

Last reported at 2015-Apr-21 18:06 UTC. Time now 2015-May-05 16:18 UTC.
Position N 01°58' E 102°15'.
Warning: this ship's position is 13 days out of date.

Length 336 m; draft 13.7 m.

Type: Ship. MMSI: 432657000.

Date/timePositionNaut miles runAvg speedWind from/ knotsBaromVisibWave heightAir tempDewpointWater temp
2015-Apr-21 18:06N 01°58' E 102°15'917.0
2015-Apr-21 17:33N 01°54' E 102°23'1616.3
2015-Apr-21 16:33N 01°46' E 102°38'1615.1
2015-Apr-21 15:31N 01°38' E 102°51'6315.6
2015-Apr-21 11:29N 01°11' E 103°48'6 6.1
2015-Apr-21 10:33N 01°16' E 103°51'0 0.0
2015-Apr-21 09:29N 01°16' E 103°51'0 0.0
2015-Apr-21 08:29N 01°16' E 103°51'0 0.0
2015-Apr-21 07:29N 01°16' E 103°51'0 0.0
2015-Apr-21 06:32N 01°16' E 103°51'0 0.0
2015-Apr-21 05:29N 01°16' E 103°51'0 0.0
2015-Apr-21 04:27N 01°16' E 103°51'0 0.0
2015-Apr-21 03:32N 01°16' E 103°51'0 0.0
2015-Apr-21 02:29N 01°16' E 103°51'0 0.0
2015-Apr-21 01:17N 01°16' E 103°51'0 0.0
2015-Apr-21 00:26N 01°16' E 103°51'0 0.0
2015-Apr-20 23:29N 01°16' E 103°51'0 0.0
2015-Apr-20 22:11N 01°16' E 103°51'0 0.0
2015-Apr-20 21:23N 01°16' E 103°51'0 0.0
2015-Apr-20 20:29N 01°16' E 103°51'0 0.0
2015-Apr-20 19:32N 01°16' E 103°51'0 0.0
2015-Apr-20 18:29N 01°16' E 103°51'0 0.0
2015-Apr-20 17:23N 01°16' E 103°51'0 0.0
2015-Apr-20 16:32N 01°16' E 103°51'0 0.1
2015-Apr-20 15:32N 01°16' E 103°51'0 0.0
2015-Apr-20 14:32N 01°16' E 103°51'0 0.0
2015-Apr-20 13:26N 01°16' E 103°51'0 0.0
2015-Apr-20 12:32N 01°16' E 103°51'0 0.1
2015-Apr-20 11:32N 01°16' E 103°51'0 0.1
2015-Apr-20 10:29N 01°16' E 103°51'0 0.0
2015-Apr-20 09:32N 01°16' E 103°51'0 0.1
2015-Apr-20 08:23N 01°16' E 103°51'0 0.1
2015-Apr-20 07:29N 01°16' E 103°51'0 0.0
2015-Apr-20 06:29N 01°16' E 103°51'0 0.0
2015-Apr-20 05:32N 01°16' E 103°51'0 0.0
2015-Apr-20 04:29N 01°16' E 103°51'0 0.0
2015-Apr-20 03:29N 01°16' E 103°51'0 0.0
2015-Apr-20 02:20N 01°16' E 103°51'0 0.0
2015-Apr-20 01:32N 01°16' E 103°51'1 1.1
2015-Apr-20 00:33N 01°15' E 103°52'6 5.6
2015-Apr-19 23:33N 01°15' E 103°57'1211.7
2015-Apr-19 22:32N 01°17' E 104°09'  
2015-Apr-16 22:04N 21°55' E 114°21'1019.1
2015-Apr-16 21:33N 22°05' E 114°22'1611.6
2015-Apr-16 20:09N 22°14' E 114°08'5 8.7
2015-Apr-16 19:33N 22°19' E 114°05'2 1.7
2015-Apr-16 18:17N 22°20' E 114°08'0 0.0
2015-Apr-16 17:32N 22°20' E 114°08'0 0.0
2015-Apr-16 16:32N 22°20' E 114°08'0 0.0
2015-Apr-16 15:32N 22°20' E 114°08'0 0.0
2015-Apr-16 14:32N 22°20' E 114°08'0 0.0
2015-Apr-16 13:32N 22°20' E 114°08'0 0.0
2015-Apr-16 12:32N 22°20' E 114°08'0 0.0
2015-Apr-16 11:29N 22°20' E 114°08'0 0.0
2015-Apr-16 10:32N 22°20' E 114°08'0 0.0
2015-Apr-16 09:26N 22°20' E 114°08'0 0.0
2015-Apr-16 08:08N 22°20' E 114°08'0 0.0
2015-Apr-16 07:20N 22°20' E 114°08'0 0.0
2015-Apr-16 06:29N 22°20' E 114°08'0 0.2
2015-Apr-16 05:33N 22°20' E 114°07'5 4.1
2015-Apr-16 04:25N 22°21' E 114°03'1011.0
2015-Apr-16 03:33N 22°25' E 113°53'2 2.0
2015-Apr-16 02:33N 22°27' E 113°53'0 0.0
2015-Apr-16 01:33N 22°27' E 113°53'0 0.0
2015-Apr-16 00:33N 22°27' E 113°53'0 0.0
2015-Apr-15 23:12N 22°27' E 113°53'0 0.0
2015-Apr-15 22:24N 22°27' E 113°53'0 0.0
2015-Apr-15 21:30N 22°27' E 113°53'0 0.0
2015-Apr-15 20:12N 22°27' E 113°53'0 0.0
2015-Apr-15 19:24N 22°27' E 113°53'0 0.0
2015-Apr-15 18:18N 22°27' E 113°53'0 0.0
2015-Apr-15 17:30N 22°27' E 113°53'0 0.0
2015-Apr-15 16:30N 22°27' E 113°53'0 0.0
2015-Apr-15 15:30N 22°27' E 113°53'0 0.0
2015-Apr-15 14:30N 22°27' E 113°53'0 0.4
2015-Apr-15 13:33N 22°26' E 113°53'14 7.0
2015-Apr-15 11:33N 22°19' E 114°06'10 9.5
2015-Apr-15 10:27N 22°10' E 114°13'9 9.6
2015-Apr-15 09:33N 22°09' E 114°22'1110.7
2015-Apr-15 08:33N 22°09' E 114°33'112 9.9
2015-Apr-14 21:17N 22°42' E 116°29'911.6
2015-Apr-14 20:32N 22°45' E 116°37'1211.8
2015-Apr-14 19:33N 22°49' E 116°49'1212.5
2015-Apr-14 18:34N 22°55' E 117°01'1312.5
2015-Apr-14 17:33N 22°60' E 117°14'3913.1
2015-Apr-14 14:33N 23°21' E 117°49'1312.9
2015-Apr-14 13:32N 23°29' E 118°01'1212.6
2015-Apr-14 12:33N 23°36' E 118°12'1312.3
2015-Apr-14 11:27N 23°45' E 118°23'1212.4
2015-Apr-14 10:31N 23°53' E 118°32'1212.0
2015-Apr-14 09:29N 23°60' E 118°43'1612.1
2015-Apr-14 08:12N 24°10' E 118°56'1717.2
2015-Apr-14 07:11N 24°21' E 119°11'1117.3
2015-Apr-14 06:33N 24°28' E 119°20'33317.5
2015-Apr-13 11:33N 29°13' E 122°34'2118.2
2015-Apr-13 10:24N 29°33' E 122°28'1214.4
2015-Apr-13 09:33N 29°43' E 122°21'1110.8
2015-Apr-13 08:33N 29°51' E 122°12'1110.6
2015-Apr-13 07:33N 29°46' E 122°01'1 0.6
2015-Apr-13 06:29N 29°46' E 122°00'0 0.0
2015-Apr-13 05:23N 29°46' E 122°00'0 0.0
2015-Apr-13 04:05N 29°46' E 122°00'0 0.0
2015-Apr-13 03:29N 29°46' E 122°00'0 0.0
2015-Apr-13 01:29N 29°46' E 122°00'0 0.0
2015-Apr-12 22:11N 29°46' E 122°00'0 0.0
2015-Apr-12 21:11N 29°46' E 122°00'0 0.0
2015-Apr-12 20:17N 29°46' E 122°00'0 0.0
2015-Apr-12 19:11N 29°46' E 122°00'0 0.0
2015-Apr-12 18:29N 29°46' E 122°00'0 0.0
2015-Apr-12 16:29N 29°46' E 122°00'0 0.0
2015-Apr-12 15:17N 29°46' E 122°00'1 1.7
2015-Apr-12 14:33N 29°47' E 122°02'1111.6
2015-Apr-12 13:33N 29°48' E 122°15'7 7.2
2015-Apr-12 12:33N 29°45' E 122°22'0 0.0
2015-Apr-12 11:13N 29°45' E 122°22'0 0.1
2015-Apr-12 08:31N 29°46' E 122°22'0 0.1
2015-Apr-12 04:29N 29°45' E 122°22'6 6.0
2015-Apr-12 03:33N 29°44' E 122°28'1312.7
2015-Apr-12 02:33N 29°48' E 122°42'1313.2
2015-Apr-12 01:33N 29°55' E 122°55'1212.4
2015-Apr-12 00:33N 30°05' E 123°04'1312.8
2015-Apr-11 23:32N 30°18' E 122°59'1613.1
2015-Apr-11 22:18N 30°27' E 122°44'1113.0
2015-Apr-11 21:29N 30°30' E 122°32'1312.2
2015-Apr-11 20:27N 30°33' E 122°18'1010.8
2015-Apr-11 19:33N 30°35' E 122°07'2 2.0
2015-Apr-11 18:32N 30°36' E 122°05'  
Track history (hours):
 
Tides and Currents Weather Stations Pressure Air Temp Water Temp Dewpoint Dewpoint Depression Visibility Wind Speed Wind Dir Waves Ship Positions

Nyk Orpheus

Last reported at 2015-Apr-21 18:06 UTC. Time now 2015-May-05 16:18 UTC.
Position N 01°58' E 102°15'.
Warning: this ship's position is 13 days out of date.

Length 336 m; draft 13.7 m.

Type: Ship. MMSI: 432657000.

Date/timePositionNaut miles runAvg speedWind from/ knotsBaromVisibWave heightAir tempDewpointWater temp
2015-Apr-21 18:06N 01°58' E 102°15'917.0
2015-Apr-21 17:33N 01°54' E 102°23'1616.3
2015-Apr-21 16:33N 01°46' E 102°38'1615.1
2015-Apr-21 15:31N 01°38' E 102°51'6315.6
2015-Apr-21 11:29N 01°11' E 103°48'6 6.1
2015-Apr-21 10:33N 01°16' E 103°51'0 0.0
2015-Apr-21 09:29N 01°16' E 103°51'0 0.0
2015-Apr-21 08:29N 01°16' E 103°51'0 0.0
2015-Apr-21 07:29N 01°16' E 103°51'0 0.0
2015-Apr-21 06:32N 01°16' E 103°51'0 0.0
2015-Apr-21 05:29N 01°16' E 103°51'0 0.0
2015-Apr-21 04:27N 01°16' E 103°51'0 0.0
2015-Apr-21 03:32N 01°16' E 103°51'0 0.0
2015-Apr-21 02:29N 01°16' E 103°51'0 0.0
2015-Apr-21 01:17N 01°16' E 103°51'0 0.0
2015-Apr-21 00:26N 01°16' E 103°51'0 0.0
2015-Apr-20 23:29N 01°16' E 103°51'0 0.0
2015-Apr-20 22:11N 01°16' E 103°51'0 0.0
2015-Apr-20 21:23N 01°16' E 103°51'0 0.0
2015-Apr-20 20:29N 01°16' E 103°51'0 0.0
2015-Apr-20 19:32N 01°16' E 103°51'0 0.0
2015-Apr-20 18:29N 01°16' E 103°51'0 0.0
2015-Apr-20 17:23N 01°16' E 103°51'0 0.0
2015-Apr-20 16:32N 01°16' E 103°51'0 0.1
2015-Apr-20 15:32N 01°16' E 103°51'0 0.0
2015-Apr-20 14:32N 01°16' E 103°51'0 0.0
2015-Apr-20 13:26N 01°16' E 103°51'0 0.0
2015-Apr-20 12:32N 01°16' E 103°51'0 0.1
2015-Apr-20 11:32N 01°16' E 103°51'0 0.1
2015-Apr-20 10:29N 01°16' E 103°51'0 0.0
2015-Apr-20 09:32N 01°16' E 103°51'0 0.1
2015-Apr-20 08:23N 01°16' E 103°51'0 0.1
2015-Apr-20 07:29N 01°16' E 103°51'0 0.0
2015-Apr-20 06:29N 01°16' E 103°51'0 0.0
2015-Apr-20 05:32N 01°16' E 103°51'0 0.0
2015-Apr-20 04:29N 01°16' E 103°51'0 0.0
2015-Apr-20 03:29N 01°16' E 103°51'0 0.0
2015-Apr-20 02:20N 01°16' E 103°51'0 0.0
2015-Apr-20 01:32N 01°16' E 103°51'1 1.1
2015-Apr-20 00:33N 01°15' E 103°52'6 5.6
2015-Apr-19 23:33N 01°15' E 103°57'1211.7
2015-Apr-19 22:32N 01°17' E 104°09'  
2015-Apr-16 22:04N 21°55' E 114°21'1019.1
2015-Apr-16 21:33N 22°05' E 114°22'1611.6
2015-Apr-16 20:09N 22°14' E 114°08'5 8.7
2015-Apr-16 19:33N 22°19' E 114°05'2 1.7
2015-Apr-16 18:17N 22°20' E 114°08'0 0.0
2015-Apr-16 17:32N 22°20' E 114°08'0 0.0
2015-Apr-16 16:32N 22°20' E 114°08'0 0.0
2015-Apr-16 15:32N 22°20' E 114°08'0 0.0
2015-Apr-16 14:32N 22°20' E 114°08'0 0.0
2015-Apr-16 13:32N 22°20' E 114°08'0 0.0
2015-Apr-16 12:32N 22°20' E 114°08'0 0.0
2015-Apr-16 11:29N 22°20' E 114°08'0 0.0
2015-Apr-16 10:32N 22°20' E 114°08'0 0.0
2015-Apr-16 09:26N 22°20' E 114°08'0 0.0
2015-Apr-16 08:08N 22°20' E 114°08'0 0.0
2015-Apr-16 07:20N 22°20' E 114°08'0 0.0
2015-Apr-16 06:29N 22°20' E 114°08'0 0.2
2015-Apr-16 05:33N 22°20' E 114°07'5 4.1
2015-Apr-16 04:25N 22°21' E 114°03'1011.0
2015-Apr-16 03:33N 22°25' E 113°53'2 2.0
2015-Apr-16 02:33N 22°27' E 113°53'0 0.0
2015-Apr-16 01:33N 22°27' E 113°53'0 0.0
2015-Apr-16 00:33N 22°27' E 113°53'0 0.0
2015-Apr-15 23:12N 22°27' E 113°53'0 0.0
2015-Apr-15 22:24N 22°27' E 113°53'0 0.0
2015-Apr-15 21:30N 22°27' E 113°53'0 0.0
2015-Apr-15 20:12N 22°27' E 113°53'0 0.0
2015-Apr-15 19:24N 22°27' E 113°53'0 0.0
2015-Apr-15 18:18N 22°27' E 113°53'0 0.0
2015-Apr-15 17:30N 22°27' E 113°53'0 0.0
2015-Apr-15 16:30N 22°27' E 113°53'0 0.0
2015-Apr-15 15:30N 22°27' E 113°53'0 0.0
2015-Apr-15 14:30N 22°27' E 113°53'0 0.4
2015-Apr-15 13:33N 22°26' E 113°53'14 7.0
2015-Apr-15 11:33N 22°19' E 114°06'10 9.5
2015-Apr-15 10:27N 22°10' E 114°13'9 9.6
2015-Apr-15 09:33N 22°09' E 114°22'1110.7
2015-Apr-15 08:33N 22°09' E 114°33'112 9.9
2015-Apr-14 21:17N 22°42' E 116°29'911.6
2015-Apr-14 20:32N 22°45' E 116°37'1211.8
2015-Apr-14 19:33N 22°49' E 116°49'1212.5
2015-Apr-14 18:34N 22°55' E 117°01'1312.5
2015-Apr-14 17:33N 22°60' E 117°14'3913.1
2015-Apr-14 14:33N 23°21' E 117°49'1312.9
2015-Apr-14 13:32N 23°29' E 118°01'1212.6
2015-Apr-14 12:33N 23°36' E 118°12'1312.3
2015-Apr-14 11:27N 23°45' E 118°23'1212.4
2015-Apr-14 10:31N 23°53' E 118°32'1212.0
2015-Apr-14 09:29N 23°60' E 118°43'1612.1
2015-Apr-14 08:12N 24°10' E 118°56'1717.2
2015-Apr-14 07:11N 24°21' E 119°11'1117.3
2015-Apr-14 06:33N 24°28' E 119°20'33317.5
2015-Apr-13 11:33N 29°13' E 122°34'2118.2
2015-Apr-13 10:24N 29°33' E 122°28'1214.4
2015-Apr-13 09:33N 29°43' E 122°21'1110.8
2015-Apr-13 08:33N 29°51' E 122°12'1110.6
2015-Apr-13 07:33N 29°46' E 122°01'1 0.6
2015-Apr-13 06:29N 29°46' E 122°00'0 0.0
2015-Apr-13 05:23N 29°46' E 122°00'0 0.0
2015-Apr-13 04:05N 29°46' E 122°00'0 0.0
2015-Apr-13 03:29N 29°46' E 122°00'0 0.0
2015-Apr-13 01:29N 29°46' E 122°00'0 0.0
2015-Apr-12 22:11N 29°46' E 122°00'0 0.0
2015-Apr-12 21:11N 29°46' E 122°00'0 0.0
2015-Apr-12 20:17N 29°46' E 122°00'0 0.0
2015-Apr-12 19:11N 29°46' E 122°00'0 0.0
2015-Apr-12 18:29N 29°46' E 122°00'0 0.0
2015-Apr-12 16:29N 29°46' E 122°00'0 0.0
2015-Apr-12 15:17N 29°46' E 122°00'1 1.7
2015-Apr-12 14:33N 29°47' E 122°02'1111.6
2015-Apr-12 13:33N 29°48' E 122°15'7 7.2
2015-Apr-12 12:33N 29°45' E 122°22'0 0.0
2015-Apr-12 11:13N 29°45' E 122°22'0 0.1
2015-Apr-12 08:31N 29°46' E 122°22'0 0.1
2015-Apr-12 04:29N 29°45' E 122°22'6 6.0
2015-Apr-12 03:33N 29°44' E 122°28'1312.7
2015-Apr-12 02:33N 29°48' E 122°42'1313.2
2015-Apr-12 01:33N 29°55' E 122°55'1212.4
2015-Apr-12 00:33N 30°05' E 123°04'1312.8
2015-Apr-11 23:32N 30°18' E 122°59'1613.1
2015-Apr-11 22:18N 30°27' E 122°44'1113.0
2015-Apr-11 21:29N 30°30' E 122°32'1312.2
2015-Apr-11 20:27N 30°33' E 122°18'1010.8
2015-Apr-11 19:33N 30°35' E 122°07'2 2.0
2015-Apr-11 18:32N 30°36' E 122°05'  

Dump ship's entire track history